Date,TemperatureHighF,TemperatureAvgF,TemperatureLowF,DewpointHighF,DewpointAvgF,DewpointLowF,HumidityHigh,HumidityAvg,HumidityLow,PressureMaxIn,PressureMinIn,WindSpeedMaxMPH,WindSpeedAvgMPH,GustSpeedMaxMPH,PrecipitationSumIn
2013-1-1,75,66,56,62,59,54,94,79,61,30.23,30.06,15,3,16,0.00
2013-1-2,74,66,60,69,64,59,97,93,83,30.10,30.01,13,2,14,0.00
2013-1-3,78,67,59,70,64,58,98,92,68,30.15,30.03,13,3,14,0.08
2013-1-4,66,61,58,62,59,56,96,93,85,30.28,30.13,14,5,16,0.02
2013-1-5,77,66,58,68,62,57,96,86,70,30.30,30.17,17,4,17,0.00
2013-1-6,79,69,63,72,66,62,98,91,77,30.21,30.07,14,4,15,0.00
2013-1-7,69,66,62,66,62,59,96,90,78,30.20,30.10,15,6,16,0.03
2013-1-8,82,70,62,71,66,60,97,86,67,30.23,30.12,14,4,14,0.00
2013-1-9,84,74,70,72,69,67,96,86,60,30.28,30.16,15,5,17,0.00
2013-1-10,83,75,66,70,66,62,95,76,54,30.29,30.19,24,5,24,0.00
2013-1-11,82,72,65,69,65,62,94,80,55,30.27,30.13,17,4,20,0.00
2013-1-12,80,71,64,71,67,63,96,86,67,30.19,30.08,18,4,18,0.00
2013-1-13,80,71,64,70,66,62,95,85,69,30.17,30.07,11,3,12,0.00
2013-1-14,79,70,62,66,63,60,96,81,55,30.20,30.12,19,3,19,0.00
2013-1-15,77,69,60,68,64,59,96,85,67,30.16,30.06,13,3,13,0.00
2013-1-16,78,70,64,68,65,62,96,84,59,30.12,30.02,14,3,14,0.00
2013-1-17,74,65,58,71,60,50,98,85,66,30.17,30.03,24,7,24,0.02
2013-1-18,64,54,42,58,48,36,91,79,61,30.33,30.17,22,7,22,0.00
2013-1-19,73,62,54,63,58,51,93,84,70,30.28,30.13,19,6,19,0.01
2013-1-20,73,65,61,66,62,59,94,89,77,30.18,30.05,10,2,11,0.00
2013-1-21,74,66,62,66,61,54,88,83,73,30.13,30.04,15,4,15,0.00
2013-1-22,66,60,53,55,44,35,80,57,33,30.30,30.09,17,5,17,0.00
2013-1-23,70,56,46,52,41,35,79,59,30,30.38,30.28,16,4,16,0.00
2013-1-25,72,65,56,57,54,49,92,70,45,30.32,30.21,10,2,11,0.00
2013-1-26,72,61,49,60,55,47,95,82,47,30.31,30.19,11,3,13,0.01
2013-1-27,78,66,54,61,55,51,96,70,41,30.32,30.22,16,4,16,0.01
2013-1-28,81,69,62,66,62,58,91,78,55,30.33,30.21,16,4,18,0.00
2013-1-29,80,70,61,69,65,58,96,85,62,30.25,30.10,18,4,19,0.00
2013-1-30,77,71,66,70,66,63,93,85,73,30.11,29.95,27,7,30,0.00
2013-1-31,70,58,49,68,45,35,95,63,46,30.27,29.95,19,6,19,0.11
2013-2-1,68,55,42,44,36,28,80,53,23,30.39,30.24,18,4,20,0.00
2013-2-2,71,58,45,53,46,36,85,65,34,30.32,30.17,11,4,12,0.00
2013-2-3,67,57,45,57,51,42,93,80,57,30.24,30.12,13,2,13,0.00
2013-2-4,67,51,45,52,46,38,95,84,36,30.18,30.08,10,1,13,0.00
2013-2-5,53,50,49,47,43,40,88,76,68,30.11,30.03,7,2,8,0.00
2013-2-7,76,71,68,67,66,66,93,84,71,30.01,29.88,29,7,29,0.12
2013-2-8,74,68,61,67,63,58,96,86,65,30.10,29.91,19,6,19,0.00
2013-2-9,78,66,56,58,56,54,95,73,47,30.20,30.07,17,5,17,0.00
2013-2-10,82,68,62,65,60,57,89,78,51,30.26,30.14,19,7,22,0.00
2013-2-11,78,71,61,69,65,59,94,83,69,30.21,30.10,20,5,23,0.00
2013-2-12,78,72,65,71,68,63,96,90,80,30.12,29.98,20,5,21,0.00
2013-2-13,77,71,63,73,68,56,98,92,75,30.02,29.90,21,6,21,0.02
2013-2-14,69,63,59,61,58,56,97,85,71,30.05,29.94,21,4,25,0.45
2013-2-15,68,61,58,62,58,54,97,90,78,30.09,29.97,10,2,10,0.12
2013-2-16,66,59,53,56,50,40,92,75,52,30.15,29.96,27,6,28,0.00
2013-2-17,56,48,41,42,29,20,76,49,35,30.37,30.14,19,6,22,0.00
2013-2-18,70,54,37,49,39,25,84,61,36,30.38,30.22,21,5,21,0.00
2013-2-19,74,63,51,64,56,47,94,80,63,30.23,30.11,20,4,20,0.00
2013-2-20,77,67,59,67,63,58,98,88,68,30.14,30.03,10,2,12,0.01
2013-2-21,79,72,60,69,66,58,94,80,65,30.13,30.00,14,4,15,0.00
2013-2-22,80,71,63,72,67,62,96,88,74,30.09,30.02,21,5,21,0.00
2013-2-23,79,72,68,73,70,66,98,92,82,30.03,29.92,20,5,23,0.00
2013-2-24,78,71,67,73,69,66,98,95,82,30.00,29.92,14,3,15,0.01
2013-2-25,80,72,66,74,70,65,98,91,80,29.93,29.80,20,4,20,0.01
2013-2-26,76,72,68,73,69,65,97,91,82,29.93,29.73,26,6,26,0.28
2013-2-27,71,68,64,65,61,58,91,78,67,30.00,29.90,11,4,13,0.00
2013-2-28,70,66,60,59,56,51,87,69,60,30.04,29.95,15,4,16,0.00
2013-3-1,62,59,56,52,48,41,76,66,56,30.07,29.95,17,6,19,0.00
2013-3-2,59,55,48,46,44,41,84,65,57,30.11,30.02,22,6,22,0.01
2013-3-3,56,50,41,44,39,30,70,66,56,30.20,30.01,22,6,22,0.00
2013-3-4,61,51,41,43,39,34,86,64,44,30.27,30.16,14,4,15,0.00
2013-3-5,69,59,43,62,53,41,92,82,65,30.21,30.09,7,4,0,0.00
2013-3-6,66,60,55,64,51,43,94,72,53,30.17,30.01,12,8,0,0.08
2013-3-7,59,53,44,48,42,34,88,67,45,30.26,30.16,9,5,0,0.00
2013-3-8,70,56,44,53,47,42,93,72,39,30.27,30.16,7,4,0,0.00
2013-3-9,75,65,49,57,51,-100,92,63,36,30.24,30.11,16,4,17,0.00
2013-3-10,77,66,57,60,56,52,86,71,47,30.16,30.04,22,5,22,0.00
2013-3-11,76,68,59,64,60,56,90,79,63,30.09,29.91,20,6,22,0.00
2013-3-12,70,65,59,66,61,53,97,87,79,30.06,29.86,21,6,26,0.30
2013-3-13,72,63,52,54,47,34,88,58,26,30.20,30.04,22,7,23,0.00
2013-3-14,64,58,52,53,40,29,77,53,29,30.26,30.16,24,7,24,0.00
2013-3-15,70,56,42,49,43,30,92,64,25,30.30,30.16,14,3,15,0.00
2013-3-16,70,58,45,61,52,42,93,79,58,30.20,30.08,17,3,17,0.00
2013-3-17,75,64,52,63,57,51,96,80,63,30.14,30.00,14,3,15,0.00
2013-3-18,76,67,61,68,64,58,96,88,76,30.04,29.86,18,5,24,0.10
2013-3-19,80,70,64,68,65,62,97,86,66,30.01,29.87,14,3,14,0.00
2013-3-20,74,65,59,64,62,58,97,89,59,30.00,29.81,24,4,25,0.35
2013-3-21,67,61,54,60,44,35,97,58,33,29.99,29.88,17,5,17,0.00
2013-3-22,77,69,53,69,62,45,97,78,54,30.01,29.88,14,4,14,0.26
2013-3-23,77,71,67,73,70,66,98,94,87,29.96,29.80,20,5,23,0.00
2013-3-24,77,72,70,73,70,69,98,95,88,29.83,29.66,22,7,25,0.43
2013-3-25,70,63,58,69,53,43,96,69,50,30.06,29.76,25,8,25,0.00
2013-3-26,60,50,50,49,28,-100,70,54,52,30.26,30.04,24,-83,27,0.01
2013-3-27,57,50,42,43,38,33,78,64,47,30.33,30.22,18,5,18,0.00
2013-3-28,68,54,42,48,40,32,92,64,27,30.31,30.20,15,4,15,0.00
2013-3-29,73,60,46,55,46,37,88,64,28,30.33,30.20,16,4,18,0.00
2013-3-30,73,62,51,60,54,47,91,75,56,30.26,30.14,17,4,17,0.00
2013-3-31,76,66,57,64,58,52,90,77,57,30.18,30.02,19,4,20,0.00
2013-4-1,76,70,66,71,67,63,96,90,82,30.05,29.97,15,4,17,0.00
2013-4-2,75,70,64,67,64,60,98,83,63,30.09,30.01,10,3,10,0.01
2013-4-3,81,71,63,70,65,60,96,84,61,30.07,29.94,18,5,19,0.00
2013-4-4,71,68,65,70,66,64,98,96,87,30.07,29.85,19,4,24,1.92
2013-4-5,71,67,63,68,63,57,97,86,68,29.98,29.82,21,7,22,0.09
2013-4-6,72,65,58,62,58,53,88,79,61,30.09,29.98,19,5,19,0.00
2013-4-7,80,70,60,66,61,58,94,75,52,30.14,30.03,18,4,18,0.00
2013-4-8,83,72,64,67,63,58,88,74,45,30.12,30.03,18,4,18,0.00
2013-4-9,83,73,64,68,64,61,92,76,51,30.14,30.04,18,4,18,0.00
2013-4-10,83,70,64,69,64,62,93,84,61,30.09,30.03,15,5,18,0.00
2013-4-11,83,78,76,74,73,72,91,84,74,29.86,29.81,21,7,24,0.00
2013-4-12,80,76,73,75,73,69,94,91,85,29.92,29.83,20,7,21,0.00
2013-4-13,81,75,69,73,70,67,95,84,73,29.97,29.86,10,2,10,0.00
2013-4-14,83,76,70,76,71,63,96,86,72,30.00,29.84,23,6,28,0.00
2013-4-15,71,69,68,64,63,62,84,81,75,29.98,29.93,10,2,10,0.00
2013-4-16,88,77,69,75,72,68,96,83,61,30.12,30.00,9,4,0,0.13
2013-4-17,88,78,68,74,68,62,93,71,44,30.12,29.99,18,5,18,0.00
2013-4-18,86,76,68,74,70,66,92,81,59,30.03,29.93,15,5,19,0.00
2013-4-19,84,77,71,76,73,69,95,87,77,30.00,29.92,24,6,26,0.00
2013-4-20,77,74,69,74,68,64,96,84,71,30.11,29.96,17,5,17,0.00
2013-4-21,86,75,61,72,68,59,93,79,56,30.10,29.98,16,5,18,0.02
2013-4-22,83,73,67,72,68,65,96,85,65,30.08,29.95,15,4,16,0.41
2013-4-23,86,74,66,69,65,62,92,74,50,30.08,29.98,16,5,19,0.00
2013-4-24,83,74,62,68,65,59,94,75,46,30.13,30.05,15,5,17,0.00
2013-4-25,81,74,65,72,67,62,93,79,55,30.20,30.07,13,4,14,0.00
2013-4-26,83,75,65,72,67,61,92,76,53,30.23,30.13,15,3,15,0.00
2013-4-27,85,75,67,72,67,64,95,77,49,30.20,30.05,18,4,19,0.00
2013-4-28,84,76,65,70,66,62,90,74,53,30.10,29.95,19,5,19,0.00
2013-4-29,84,76,67,73,69,62,90,78,62,30.02,29.90,15,5,16,0.00
2013-4-30,85,76,68,75,70,66,94,83,64,29.98,29.89,15,4,17,0.00
2013-5-1,74,69,65,72,68,64,97,95,89,29.98,29.89,17,4,18,1.52
2013-5-2,79,72,65,72,68,64,98,89,74,29.95,29.80,11,3,12,0.01
2013-5-3,80,74,66,72,69,65,96,85,74,29.83,29.71,16,4,16,0.00
2013-5-4,78,73,66,71,68,64,96,85,75,29.82,29.68,22,5,26,0.00
2013-5-5,74,70,66,68,59,52,94,68,48,29.95,29.79,23,6,24,0.03
2013-5-6,74,70,66,65,61,58,86,72,64,30.01,29.90,16,4,16,0.01
2013-5-7,75,69,60,63,60,57,90,74,60,30.06,29.97,17,4,17,0.00
2013-5-8,76,71,61,65,63,60,94,76,62,30.14,30.03,14,3,15,0.00
2013-5-9,81,72,61,68,64,58,94,77,47,30.15,30.07,12,3,12,0.00
2013-5-10,85,75,64,75,69,62,96,82,54,30.13,30.00,15,4,15,0.00
2013-5-11,84,78,71,78,74,70,97,90,77,30.05,29.98,16,4,16,0.00
2013-5-12,83,78,73,75,73,70,97,86,73,30.05,29.92,13,3,14,0.00
2013-5-13,82,75,68,72,65,53,90,73,50,30.13,29.99,18,4,20,0.00
2013-5-14,83,72,58,60,54,44,81,55,26,30.20,30.08,19,5,22,0.00
2013-5-15,85,73,62,66,60,49,84,64,33,30.19,30.06,14,4,15,0.00
2013-5-16,81,74,65,67,64,61,89,73,56,30.11,29.99,9,3,9,0.00
2013-5-17,83,76,67,71,68,63,89,75,59,30.08,30.00,12,4,13,0.00
2013-5-18,85,77,70,75,70,67,96,80,61,30.09,30.00,13,3,14,0.00
2013-5-19,86,78,68,74,70,66,93,77,58,30.08,29.97,13,2,13,0.00
2013-5-20,89,78,70,76,71,66,91,80,56,30.06,29.94,21,4,23,0.00
2013-5-21,85,75,68,74,70,66,96,83,64,30.01,29.90,17,4,19,0.01
2013-5-22,83,77,68,75,71,66,95,84,67,29.96,29.88,15,3,15,0.00
2013-5-23,83,78,70,75,73,69,96,83,71,30.02,29.90,15,4,16,0.00
2013-5-24,86,80,75,78,74,70,92,81,62,30.06,29.96,15,4,16,0.00
2013-5-25,91,81,72,72,68,63,90,66,41,30.14,30.03,19,6,20,0.00
2013-5-26,87,77,67,66,61,54,87,61,34,30.18,30.08,16,5,17,0.00
2013-5-27,89,78,67,73,66,62,88,67,44,30.16,30.02,19,5,20,0.00
2013-5-28,89,79,71,75,71,68,92,77,57,30.11,29.99,25,8,29,0.00
2013-5-29,87,79,71,74,71,68,95,77,58,30.07,29.99,27,8,27,0.00
2013-5-30,88,79,72,74,71,69,93,79,61,30.05,29.96,26,9,26,0.07
2013-5-31,86,80,72,77,74,69,91,82,70,30.05,29.98,17,6,17,0.07
2013-6-1,86,78,72,77,74,70,96,87,70,30.03,29.94,14,4,15,0.10
2013-6-2,87,79,72,78,75,71,97,86,71,29.98,29.89,18,4,18,0.01
2013-6-3,83,78,75,79,75,73,97,89,79,29.99,29.89,16,4,16,1.06
2013-6-4,84,79,75,77,74,72,94,84,73,30.01,29.93,14,4,18,0.01
2013-6-5,83,77,74,75,73,72,96,88,70,29.99,29.85,18,5,20,0.38
2013-6-6,80,76,73,76,74,72,98,93,86,29.85,29.68,32,10,33,2.17
2013-6-7,83,79,75,77,74,73,93,87,79,29.95,29.78,13,4,14,0.00
2013-6-8,86,78,71,80,75,70,98,89,75,30.07,29.95,17,4,17,1.62
2013-6-9,88,79,71,78,75,70,98,88,70,30.07,29.99,15,3,15,0.08
2013-6-10,87,80,74,79,75,73,97,85,70,30.06,29.99,13,3,14,0.00
2013-6-11,89,81,75,81,76,71,96,84,65,30.06,29.98,20,3,20,0.29
2013-6-12,87,76,73,78,72,70,93,88,67,30.06,30.01,5,1,6,0.00
2013-6-13,87,82,80,78,76,76,88,83,72,30.00,29.93,13,3,13,0.00
2013-6-14,86,82,80,77,75,74,88,80,70,29.95,29.87,14,4,15,0.00
2013-6-15,87,83,78,78,76,72,88,80,69,30.03,29.91,14,4,14,0.00
2013-6-16,78,78,77,75,75,74,93,91,88,30.03,30.02,7,2,7,0.00
2013-6-17,87,84,82,78,77,76,83,78,70,30.05,29.98,12,3,12,0.00
2013-6-18,89,83,76,79,77,73,93,81,67,30.05,29.95,14,3,16,0.00
2013-6-19,89,83,73,80,77,70,96,81,67,30.02,29.95,12,2,15,0.31
2013-6-20,89,82,76,79,74,72,89,79,61,30.08,29.99,11,3,11,0.00
2013-6-21,89,79,73,78,73,71,94,83,62,30.09,30.01,11,3,11,0.00
2013-6-22,89,83,73,76,74,70,94,74,62,30.09,30.02,14,4,14,0.00
2013-6-23,89,79,72,78,74,70,97,87,62,30.11,30.03,23,4,25,1.22
2013-6-24,88,78,74,78,74,72,97,89,64,30.18,30.06,23,3,23,0.56
2013-6-25,89,81,72,78,75,70,97,81,58,30.16,30.03,18,3,21,0.67
2013-6-26,88,79,74,79,74,71,98,86,72,30.08,30.02,10,3,11,0.01
2013-6-27,88,80,72,78,74,70,96,83,66,30.06,29.95,13,3,13,0.00
2013-6-28,88,84,75,79,77,74,97,80,69,30.00,29.87,15,4,15,0.30
2013-6-29,88,83,78,79,76,74,89,80,72,29.90,29.83,22,6,24,0.07
2013-6-30,88,82,74,79,76,72,95,82,72,29.91,29.82,17,6,17,0.65
2013-7-1,78,75,73,76,73,72,97,94,87,30.00,29.86,18,5,23,2.62
2013-7-2,88,78,72,79,74,71,97,88,67,30.10,29.98,22,5,22,0.44
2013-7-3,90,77,74,79,74,72,97,90,65,30.13,30.05,14,4,20,1.42
2013-7-4,88,78,72,80,74,71,96,88,70,30.15,30.07,17,4,19,0.08
2013-7-5,86,77,70,77,74,69,97,90,73,30.15,30.05,18,4,18,0.87
2013-7-6,90,79,73,78,75,72,97,87,60,30.09,29.99,17,4,17,0.01
2013-7-7,92,82,75,77,75,73,95,81,58,30.08,30.01,16,5,18,0.00
2013-7-8,92,82,73,78,75,71,96,80,52,30.13,30.04,17,4,17,0.38
2013-7-9,92,82,73,76,73,70,95,76,50,30.14,30.02,17,3,17,0.00
2013-7-10,88,80,74,78,74,71,96,84,62,30.07,29.95,13,2,13,0.53
2013-7-11,87,80,74,77,74,72,96,85,66,30.01,29.92,13,3,13,0.00
2013-7-12,86,82,74,78,75,71,93,81,71,29.95,29.87,12,2,13,0.23
2013-7-13,86,78,74,78,74,72,94,88,71,29.97,29.88,15,2,15,0.81
2013-7-14,86,78,73,78,74,71,96,88,73,30.05,29.92,16,4,16,0.06
2013-7-15,89,78,73,78,73,71,96,86,59,30.08,29.97,15,4,18,0.75
2013-7-16,87,77,74,76,73,70,96,88,62,30.11,30.03,27,5,28,0.04
2013-7-17,90,77,71,76,73,69,96,87,61,30.12,30.04,27,4,27,0.47
2013-7-18,84,77,71,76,73,70,96,89,73,30.09,30.02,13,3,15,0.01
2013-7-19,88,79,72,79,74,70,95,85,73,30.10,30.02,18,4,20,0.00
2013-7-20,88,79,73,80,74,71,95,86,71,30.09,30.00,16,4,16,0.00
2013-7-21,88,82,74,81,76,72,94,84,73,30.11,30.03,14,3,17,0.00
2013-7-22,88,83,76,80,78,75,94,84,76,30.12,30.05,14,3,14,0.00
2013-7-23,87,83,78,78,76,75,90,81,72,30.09,29.96,13,3,15,0.00
2013-7-24,87,84,81,77,76,75,83,77,68,30.01,29.91,16,6,17,0.00
2013-7-25,88,84,82,79,77,76,84,81,71,30.00,29.88,18,7,18,0.00
2013-7-26,89,84,77,80,78,74,92,81,71,30.00,29.92,16,5,16,0.09
2013-7-27,89,84,79,79,77,75,90,79,65,29.98,29.90,8,3,12,0.00
2013-7-28,88,83,76,78,76,74,94,80,68,30.04,29.92,9,2,14,0.00
2013-7-29,90,82,75,79,75,72,93,81,59,30.13,30.00,16,3,16,0.04
2013-7-30,92,80,74,80,75,72,96,85,57,30.15,30.04,20,2,21,0.72
2013-7-31,92,82,76,80,76,72,95,83,57,30.12,29.98,16,3,18,0.00
2013-8-1,89,82,75,79,76,71,93,81,61,30.04,29.92,12,4,13,0.00
2013-8-2,89,85,75,80,77,72,92,77,69,30.03,29.92,11,3,12,0.00
2013-8-3,90,84,78,80,77,75,93,80,66,30.08,29.98,13,3,13,0.00
2013-8-4,88,84,78,80,78,76,95,82,73,30.08,29.99,15,3,15,0.29
2013-8-5,90,85,82,80,78,77,86,80,71,30.02,29.92,8,3,9,0.01
2013-8-6,88,82,73,81,78,71,96,87,71,29.98,29.87,8,2,12,3.16
2013-8-7,92,81,76,81,76,74,95,87,62,29.95,29.88,9,3,18,0.96
2013-8-8,90,81,75,79,76,71,95,85,62,30.00,29.90,12,4,18,0.23
2013-8-9,77,77,76,74,74,74,92,92,91,29.99,29.99,3,2,5,0.00
2013-8-10,91,82,73,81,76,71,95,83,65,30.10,30.01,7,3,0,0.00
2013-8-11,92,84,75,80,77,73,94,80,63,30.13,30.02,6,4,0,0.00
2013-8-12,91,83,76,81,77,74,94,82,59,30.11,29.98,5,2,6,0.00
2013-8-13,91,86,75,79,77,73,93,76,59,30.04,29.92,13,3,13,0.05
2013-8-14,89,84,78,80,77,74,94,81,61,29.98,29.90,13,3,15,0.04
2013-8-15,88,81,75,79,76,72,91,85,71,30.03,29.93,12,3,16,0.18
2013-8-16,91,85,76,80,78,73,91,78,61,30.03,29.93,11,3,11,0.38
2013-8-17,92,81,74,80,76,71,96,85,56,30.05,29.95,24,3,24,0.17
2013-8-18,90,78,73,81,75,71,95,90,66,30.09,29.97,19,4,21,1.22
2013-8-19,93,80,73,80,75,72,96,87,56,30.05,29.93,22,4,22,0.16
2013-8-20,92,79,73,78,74,71,95,86,59,30.05,29.96,13,3,15,0.01
2013-8-21,92,80,73,80,76,71,97,87,60,30.07,29.94,23,4,28,1.00
2013-8-22,91,78,73,79,75,71,97,92,64,30.05,29.94,11,3,13,0.20
2013-8-23,91,81,74,80,75,73,97,84,62,30.00,29.93,16,3,17,0.02
2013-8-24,90,80,73,81,75,72,96,87,68,30.08,29.97,19,3,21,1.01
2013-8-25,89,78,73,79,74,71,95,90,66,30.12,30.03,19,3,21,0.00
2013-8-26,91,80,73,78,74,70,94,84,57,30.11,29.97,16,3,17,0.18
2013-8-27,88,77,72,77,73,71,96,89,66,30.03,29.96,16,3,17,0.18
2013-8-28,90,76,72,78,73,70,96,89,57,30.03,29.95,17,2,20,1.38
2013-8-29,90,80,72,78,74,70,95,81,55,30.02,29.91,15,3,16,0.01
2013-8-30,88,81,74,79,76,71,93,84,62,29.99,29.88,9,2,11,0.56
2013-8-31,88,81,74,79,76,69,95,84,68,29.97,29.88,20,2,20,0.21
2013-9-1,88,81,74,78,75,72,95,83,66,29.97,29.90,12,2,12,0.30
2013-9-2,88,80,74,80,76,72,95,86,71,30.00,29.92,18,3,19,0.01
2013-9-3,89,81,76,80,76,74,96,85,67,30.01,29.91,11,2,13,0.02
2013-9-4,91,80,73,80,75,69,94,86,65,30.06,29.93,24,2,29,0.44
2013-9-5,93,79,73,81,75,69,94,86,59,30.07,29.97,19,3,19,0.60
2013-9-6,92,82,72,80,76,70,96,82,63,30.03,29.91,27,4,31,0.49
2013-9-7,90,79,72,78,73,71,96,84,60,30.00,29.89,19,4,22,0.01
2013-9-8,89,79,72,78,73,70,95,84,62,29.97,29.81,15,3,15,0.01
2013-9-9,92,82,75,77,74,71,93,78,52,29.96,29.83,14,4,16,0.01
2013-9-10,91,82,74,76,73,67,94,74,48,30.01,29.90,17,5,19,0.00
2013-9-11,89,81,75,77,74,71,92,80,62,30.00,29.91,21,5,26,0.01
2013-9-12,88,79,73,78,74,70,94,85,63,29.97,29.83,20,3,21,0.03
2013-9-13,88,79,72,78,73,70,95,84,68,29.90,29.76,12,2,14,0.00
2013-9-14,89,81,75,77,75,71,95,82,63,29.92,29.78,10,2,10,0.00
2013-9-15,93,80,74,78,74,70,93,82,60,30.01,29.89,27,4,27,0.01
2013-9-16,89,78,73,79,74,71,97,89,67,30.00,29.92,27,4,36,0.93
2013-9-17,89,77,72,78,73,71,96,89,65,29.99,29.88,18,3,19,0.32
2013-9-18,91,79,73,78,74,72,96,87,61,29.97,29.88,17,3,17,0.38
2013-9-19,88,78,73,78,74,71,95,88,67,29.99,29.90,19,3,20,0.18
2013-9-20,88,81,72,74,72,70,93,75,59,29.97,29.84,14,4,14,0.00
2013-9-21,86,79,71,75,72,68,91,79,64,29.89,29.73,15,4,16,0.00
2013-9-22,88,82,75,78,76,73,93,82,69,29.81,29.72,18,3,19,0.00
2013-9-23,81,77,75,77,75,73,96,93,86,29.91,29.78,15,2,19,3.75
2013-9-24,80,76,74,76,74,72,96,94,88,29.93,29.81,12,2,13,2.02
2013-9-25,81,76,71,78,73,69,96,91,82,29.90,29.75,21,4,29,1.56
2013-9-26,87,82,77,80,78,73,91,85,74,29.83,29.75,18,5,18,0.03
2013-9-27,86,79,71,73,71,69,94,79,59,29.90,29.81,17,4,18,0.00
2013-9-28,89,79,72,75,72,70,93,80,54,29.94,29.85,19,5,19,0.00
2013-9-29,88,79,71,74,70,67,92,77,51,29.93,29.83,12,3,14,0.00
2013-9-30,88,80,70,75,72,69,94,78,57,29.93,29.85,12,3,14,0.00
2013-10-1,90,80,72,76,72,70,94,77,55,29.99,29.89,14,4,15,0.00
2013-10-2,89,80,73,75,72,70,91,77,58,29.99,29.90,17,6,18,0.00
2013-10-3,88,79,73,78,73,70,89,83,65,30.01,29.91,13,4,14,0.00
2013-10-4,89,80,75,76,73,69,92,80,55,30.03,29.94,11,3,12,0.00
2013-10-5,88,80,73,76,73,70,90,80,57,30.01,29.88,12,3,14,0.00
2013-10-6,86,79,72,76,73,70,95,82,62,29.93,29.82,12,3,13,0.00
2013-10-7,85,79,74,78,74,71,94,85,78,29.83,29.73,23,6,23,0.56
2013-10-8,84,81,75,76,74,71,88,80,69,29.90,29.76,16,5,17,0.00
2013-10-9,78,75,70,71,70,66,92,85,76,29.98,29.88,13,3,14,0.00
2013-10-10,86,75,66,72,68,64,94,81,58,30.01,29.91,12,3,13,0.00
2013-10-11,86,78,67,72,68,65,94,74,54,29.99,29.89,11,3,11,0.00
2013-10-12,85,76,67,70,66,63,88,71,50,30.00,29.93,13,3,15,0.00
2013-10-13,87,75,66,72,65,62,89,73,47,30.03,29.92,10,2,10,0.00
2013-10-14,86,76,67,72,67,64,91,75,51,30.00,29.87,12,4,14,0.00
2013-10-15,82,75,67,72,69,66,94,83,68,29.95,29.84,13,3,13,0.00
2013-10-16,81,74,68,74,70,67,95,86,75,29.92,29.85,10,3,11,0.00
2013-10-17,84,77,69,74,70,66,93,81,56,29.93,29.85,11,3,11,0.00
2013-10-18,86,77,72,76,72,69,94,84,64,29.93,29.84,11,2,12,0.00
2013-10-19,86,80,73,78,75,71,95,84,68,29.90,29.82,13,3,14,0.11
2013-10-20,85,79,73,78,74,72,96,86,73,29.91,29.82,10,2,10,0.00
2013-10-21,85,79,73,78,74,71,96,85,73,29.95,29.87,9,2,10,0.00
2013-10-22,85,78,71,78,73,69,95,87,77,29.91,29.77,15,3,21,0.22
2013-10-23,79,75,71,74,67,52,96,77,46,29.96,29.76,18,5,19,0.41
2013-10-24,73,67,63,62,55,49,84,65,54,30.11,29.94,17,5,17,0.00
2013-10-25,81,68,59,61,58,54,91,72,42,30.19,30.08,16,4,19,0.00
2013-10-26,80,69,60,63,59,53,89,73,40,30.16,30.04,12,4,13,0.00
2013-10-27,81,68,57,62,58,55,92,72,42,30.08,29.99,13,3,14,0.00
2013-10-28,84,70,60,66,61,57,89,73,44,30.13,30.03,13,3,13,0.00
2013-10-29,84,73,64,68,64,60,89,73,48,30.17,30.06,15,4,16,0.00
2013-10-30,85,74,66,70,66,64,92,77,55,30.17,30.02,17,4,17,0.00
2013-10-31,85,75,66,72,68,64,93,81,57,30.07,29.93,15,3,15,0.00
2013-11-1,82,76,70,76,72,68,94,87,79,29.95,29.85,15,3,16,0.00
2013-11-2,79,74,67,74,69,63,93,86,68,29.93,29.78,23,4,23,0.11
2013-11-3,76,68,62,63,53,44,89,61,33,30.06,29.92,17,5,18,0.00
2013-11-4,81,69,60,64,59,52,85,72,54,30.09,30.00,24,6,24,0.00
2013-11-5,82,74,66,72,67,63,90,80,68,30.07,29.98,21,7,24,0.00
2013-11-6,85,76,69,71,68,66,90,78,58,30.04,29.94,19,4,19,0.00
2013-11-7,80,72,66,72,68,65,94,85,74,30.00,29.92,12,2,13,0.00
2013-11-8,70,68,67,66,66,65,94,91,88,29.96,29.94,8,2,9,0.00
2013-11-10,84,74,66,70,66,63,91,77,57,30.10,30.00,8,4,16,0.00
2013-11-11,83,74,68,70,67,65,91,79,62,30.10,30.00,7,4,15,0.00
2013-11-12,81,72,66,70,67,64,94,84,65,30.06,29.95,6,3,14,0.00
2013-11-13,70,64,56,63,54,50,81,71,62,30.22,30.01,13,9,27,0.00
2013-11-14,77,65,54,60,55,50,86,71,49,30.23,30.10,11,6,23,0.00
2013-11-15,76,69,63,67,63,58,85,80,70,30.11,29.98,8,4,16,0.01
2013-11-16,77,72,69,70,66,65,94,82,67,30.07,29.97,19,7,20,0.27
2013-11-17,83,75,70,72,69,64,90,82,67,30.02,29.94,16,3,19,0.00
2013-11-18,80,74,69,73,70,67,94,87,74,29.98,29.89,11,2,11,0.00
2013-11-19,81,76,71,74,70,64,94,81,74,29.91,29.82,12,4,12,0.00
2013-11-20,82,73,67,73,68,63,92,86,74,30.00,29.90,11,3,12,0.00
2013-11-21,84,76,70,74,71,67,94,84,70,30.10,30.00,14,5,19,0.00
2013-11-22,83,76,70,72,69,65,93,79,65,30.12,30.02,18,5,18,0.00
2013-11-23,82,72,64,70,66,62,94,82,65,30.07,29.95,12,3,13,0.00
2013-11-24,73,66,60,66,61,55,91,83,74,30.15,29.98,18,6,22,0.00
2013-11-25,77,71,60,64,62,55,88,74,62,30.16,29.99,29,10,29,0.00
2013-11-26,81,74,67,74,70,63,94,88,77,30.04,29.73,28,8,28,0.42
2013-11-27,74,66,51,71,59,44,94,79,63,30.15,29.71,24,8,27,0.07
2013-11-28,66,52,39,52,43,33,85,72,55,30.30,30.08,18,6,19,0.00
2013-11-29,61,53,51,54,50,48,90,88,79,30.29,30.23,17,6,18,0.00
2013-11-30,75,68,55,66,62,52,93,82,72,30.27,30.11,17,5,19,0.00
2013-12-1,74,64,60,67,61,58,95,91,78,30.14,29.94,14,3,14,0.00
2013-12-2,68,64,59,63,60,58,96,88,78,29.94,29.81,7,1,8,0.01
2013-12-3,75,69,61,69,64,59,92,85,74,29.94,29.85,15,3,15,0.00
2013-12-4,80,71,65,71,66,63,95,86,73,30.03,29.92,15,3,19,0.00
2013-12-5,81,72,65,71,66,63,93,85,62,30.12,30.02,12,2,13,0.00
2013-12-6,82,73,66,73,69,65,95,88,73,30.13,30.03,17,3,18,0.00
2013-12-7,82,72,65,71,67,64,95,86,68,30.18,30.09,9,2,9,0.01
2013-12-8,83,73,65,72,67,64,95,84,57,30.17,30.04,14,3,16,0.00
2013-12-9,81,72,66,73,68,64,95,87,75,30.13,30.04,17,3,17,0.00
2013-12-10,79,71,62,72,68,60,95,89,79,30.12,30.05,12,2,12,0.01
2013-12-11,82,71,65,71,66,62,95,87,66,30.18,30.09,16,4,16,0.00
2013-12-12,73,66,54,65,55,39,95,71,40,30.25,30.12,15,5,18,0.00
2013-12-13,76,63,52,61,52,37,84,69,53,30.22,30.04,17,6,17,0.00
2013-12-14,81,74,63,72,70,59,92,86,75,30.05,29.91,21,6,21,0.00
2013-12-15,74,70,62,72,66,58,95,85,72,30.07,29.86,16,5,17,0.00
2013-12-16,65,58,50,58,50,44,89,76,57,30.18,30.06,14,4,14,0.00
2013-12-17,71,52,46,58,46,42,88,81,56,30.21,30.10,10,4,15,0.00
2013-12-18,72,60,47,53,46,41,87,64,33,30.24,30.15,14,3,16,0.00
2013-12-19,77,62,50,60,53,44,87,72,47,30.22,30.10,15,4,16,0.00
2013-12-20,83,69,61,70,62,56,87,80,63,30.14,30.03,17,5,17,0.00
2013-12-21,82,76,68,72,70,65,92,81,70,30.08,29.97,22,5,22,0.00
2013-12-22,81,73,68,73,69,66,95,88,75,30.09,30.01,23,4,24,0.00
2013-12-23,80,74,68,74,70,66,95,90,80,30.12,30.05,17,4,19,0.00
2013-12-24,73,65,53,71,55,37,94,72,43,30.21,30.07,18,6,24,0.12
2013-12-25,77,56,50,64,32,-100,79,60,60,30.19,30.06,15,-140,21,0.00
2013-12-26,78,58,62,66,33,-100,85,60,61,30.16,30.03,12,-176,13,0.00
2013-12-27,78,70,62,69,64,59,90,82,71,30.23,30.09,19,6,20,0.00
2013-12-28,80,72,65,71,67,62,93,86,73,30.18,29.98,19,6,20,0.00
2013-12-29,75,71,65,72,68,62,94,90,86,30.00,29.89,18,5,20,0.16
2013-12-30,69,50,62,62,24,-100,92,66,77,30.19,30.00,13,-220,14,0.00
2013-12-31,67,46,60,59,11,-100,90,52,61,30.27,30.14,13,-278,14,0.00
2014-1-1,72,54,59,66,32,-100,93,70,72,30.22,30.03,14,-180,19,0.00
2014-1-2,76,69,62,72,67,57,96,91,83,30.03,29.85,24,5,26,0.15